Zanesville, Indiana
Current Conditions -  °F | °C
As of 9:54 PM on Sunday 21 Dec 2014 (Local Time) from KFWA Reporting Station
Few Clouds Few Clouds  
Wind Chill: 23°   Ceiling: Unl
Heat Index: 29°   Visibility: 8mi
Dew Point: 25°   Wind: 6mph
Humidity: 85%   Direction: 130°SE
Pressure: 30.15"   Gusts: NA
Location:  40.92°N, 85.28°W
Report Text: KFWA 220254Z 13005KT 8SM FEW240 M02/M04 A3015 RMK AO2 SLP219 T10171039 56007
Loading
Personal Weather Stations






























Interactive Weather Map New forecast layout! Learn more

10-Day Weather Forecast

Advertisements
Track Severe Weather on mobile